sensor_id;sensor_type;location;lat;lon;timestamp;P1;durP1;ratioP1;P2;durP2;ratioP2
12780;SDS011;6454;43.304;24.344;2023-10-09T00:02:13;2.17;;;1.10;;
12780;SDS011;6454;43.304;24.344;2023-10-09T00:04:42;7.70;;;1.77;;
12780;SDS011;6454;43.304;24.344;2023-10-09T00:07:10;4.63;;;1.23;;
12780;SDS011;6454;43.304;24.344;2023-10-09T00:09:38;2.45;;;1.15;;
12780;SDS011;6454;43.304;24.344;2023-10-09T00:12:14;3.97;;;1.50;;
12780;SDS011;6454;43.304;24.344;2023-10-09T00:14:49;1.85;;;1.30;;
12780;SDS011;6454;43.304;24.344;2023-10-09T00:17:20;4.00;;;1.55;;
12780;SDS011;6454;43.304;24.344;2023-10-09T00:19:48;1.73;;;1.23;;
12780;SDS011;6454;43.304;24.344;2023-10-09T00:22:17;4.90;;;1.13;;
12780;SDS011;6454;43.304;24.344;2023-10-09T00:24:54;1.30;;;1.10;;
12780;SDS011;6454;43.304;24.344;2023-10-09T00:27:44;2.55;;;1.00;;
12780;SDS011;6454;43.304;24.344;2023-10-09T00:30:16;3.65;;;1.42;;
12780;SDS011;6454;43.304;24.344;2023-10-09T00:32:46;2.70;;;1.15;;
12780;SDS011;6454;43.304;24.344;2023-10-09T00:35:24;5.07;;;1.48;;
12780;SDS011;6454;43.304;24.344;2023-10-09T00:38:11;2.75;;;1.20;;
12780;SDS011;6454;43.304;24.344;2023-10-09T00:40:49;2.80;;;1.27;;
12780;SDS011;6454;43.304;24.344;2023-10-09T00:43:30;4.40;;;1.20;;
12780;SDS011;6454;43.304;24.344;2023-10-09T00:46:02;2.22;;;1.20;;
12780;SDS011;6454;43.304;24.344;2023-10-09T00:48:36;3.58;;;1.27;;
12780;SDS011;6454;43.304;24.344;2023-10-09T00:51:05;4.10;;;1.20;;
12780;SDS011;6454;43.304;24.344;2023-10-09T00:53:42;4.32;;;1.30;;
12780;SDS011;6454;43.304;24.344;2023-10-09T00:56:10;1.17;;;0.88;;
12780;SDS011;6454;43.304;24.344;2023-10-09T00:58:44;1.30;;;0.90;;
12780;SDS011;6454;43.304;24.344;2023-10-09T01:01:15;1.75;;;1.05;;
12780;SDS011;6454;43.304;24.344;2023-10-09T01:03:42;2.20;;;1.17;;
12780;SDS011;6454;43.304;24.344;2023-10-09T01:06:10;4.43;;;1.27;;
12780;SDS011;6454;43.304;24.344;2023-10-09T01:08:47;2.00;;;1.40;;
12780;SDS011;6454;43.304;24.344;2023-10-09T01:11:33;1.95;;;1.20;;
12780;SDS011;6454;43.304;24.344;2023-10-09T01:14:12;1.80;;;1.00;;
12780;SDS011;6454;43.304;24.344;2023-10-09T01:16:42;3.08;;;1.20;;
12780;SDS011;6454;43.304;24.344;2023-10-09T01:19:13;2.13;;;1.15;;
12780;SDS011;6454;43.304;24.344;2023-10-09T01:21:49;2.28;;;1.25;;
12780;SDS011;6454;43.304;24.344;2023-10-09T01:24:19;3.50;;;1.05;;
12780;SDS011;6454;43.304;24.344;2023-10-09T01:26:47;1.05;;;0.90;;
12780;SDS011;6454;43.304;24.344;2023-10-09T01:29:19;3.38;;;1.20;;
12780;SDS011;6454;43.304;24.344;2023-10-09T01:31:53;2.60;;;1.17;;
12780;SDS011;6454;43.304;24.344;2023-10-09T01:34:21;3.42;;;0.90;;
12780;SDS011;6454;43.304;24.344;2023-10-09T01:37:01;1.80;;;1.10;;
12780;SDS011;6454;43.304;24.344;2023-10-09T01:39:31;4.95;;;1.20;;
12780;SDS011;6454;43.304;24.344;2023-10-09T01:42:05;2.33;;;1.30;;
12780;SDS011;6454;43.304;24.344;2023-10-09T01:44:35;3.88;;;1.50;;
12780;SDS011;6454;43.304;24.344;2023-10-09T01:47:08;0.90;;;0.85;;
12780;SDS011;6454;43.304;24.344;2023-10-09T01:49:39;1.50;;;1.20;;
12780;SDS011;6454;43.304;24.344;2023-10-09T01:52:09;1.40;;;1.10;;
12780;SDS011;6454;43.304;24.344;2023-10-09T01:54:42;2.05;;;1.30;;
12780;SDS011;6454;43.304;24.344;2023-10-09T01:57:12;2.35;;;1.45;;
12780;SDS011;6454;43.304;24.344;2023-10-09T01:59:47;5.00;;;1.27;;
12780;SDS011;6454;43.304;24.344;2023-10-09T02:02:14;3.25;;;1.25;;
12780;SDS011;6454;43.304;24.344;2023-10-09T02:04:52;3.33;;;1.55;;
12780;SDS011;6454;43.304;24.344;2023-10-09T02:07:29;3.47;;;1.30;;
12780;SDS011;6454;43.304;24.344;2023-10-09T02:10:07;1.77;;;1.45;;
12780;SDS011;6454;43.304;24.344;2023-10-09T02:12:50;3.00;;;1.38;;
12780;SDS011;6454;43.304;24.344;2023-10-09T02:15:22;2.05;;;1.30;;
12780;SDS011;6454;43.304;24.344;2023-10-09T02:18:06;4.57;;;1.50;;
12780;SDS011;6454;43.304;24.344;2023-10-09T02:20:43;5.07;;;1.40;;
12780;SDS011;6454;43.304;24.344;2023-10-09T02:23:13;2.13;;;1.23;;
12780;SDS011;6454;43.304;24.344;2023-10-09T02:25:47;2.00;;;1.48;;
12780;SDS011;6454;43.304;24.344;2023-10-09T02:28:18;4.95;;;1.60;;
12780;SDS011;6454;43.304;24.344;2023-10-09T02:30:45;1.58;;;1.45;;
12780;SDS011;6454;43.304;24.344;2023-10-09T02:33:14;3.88;;;1.70;;
12780;SDS011;6454;43.304;24.344;2023-10-09T02:35:46;2.47;;;1.63;;
12780;SDS011;6454;43.304;24.344;2023-10-09T02:38:16;3.60;;;1.50;;
12780;SDS011;6454;43.304;24.344;2023-10-09T02:40:49;2.53;;;1.50;;
12780;SDS011;6454;43.304;24.344;2023-10-09T02:43:43;1.65;;;1.52;;
12780;SDS011;6454;43.304;24.344;2023-10-09T02:46:12;4.28;;;1.50;;
12780;SDS011;6454;43.304;24.344;2023-10-09T02:48:43;1.90;;;1.35;;
12780;SDS011;6454;43.304;24.344;2023-10-09T02:51:15;4.68;;;1.65;;
12780;SDS011;6454;43.304;24.344;2023-10-09T02:53:58;3.58;;;1.50;;
12780;SDS011;6454;43.304;24.344;2023-10-09T02:56:34;3.08;;;1.60;;
12780;SDS011;6454;43.304;24.344;2023-10-09T02:59:02;3.35;;;1.90;;
12780;SDS011;6454;43.304;24.344;2023-10-09T03:01:33;7.22;;;1.65;;
12780;SDS011;6454;43.304;24.344;2023-10-09T03:04:02;2.38;;;1.67;;
12780;SDS011;6454;43.304;24.344;2023-10-09T03:06:31;3.35;;;1.77;;
12780;SDS011;6454;43.304;24.344;2023-10-09T03:08:59;3.40;;;1.42;;
12780;SDS011;6454;43.304;24.344;2023-10-09T03:11:42;2.03;;;1.45;;
12780;SDS011;6454;43.304;24.344;2023-10-09T03:14:11;3.83;;;1.85;;
12780;SDS011;6454;43.304;24.344;2023-10-09T03:16:38;3.10;;;1.90;;
12780;SDS011;6454;43.304;24.344;2023-10-09T03:19:06;2.25;;;1.52;;
12780;SDS011;6454;43.304;24.344;2023-10-09T03:21:36;1.73;;;1.48;;
12780;SDS011;6454;43.304;24.344;2023-10-09T03:24:04;2.60;;;1.63;;
12780;SDS011;6454;43.304;24.344;2023-10-09T03:26:32;7.03;;;1.88;;
12780;SDS011;6454;43.304;24.344;2023-10-09T03:29:00;3.47;;;1.80;;
12780;SDS011;6454;43.304;24.344;2023-10-09T03:31:31;2.05;;;1.77;;
12780;SDS011;6454;43.304;24.344;2023-10-09T03:34:01;5.55;;;1.60;;
12780;SDS011;6454;43.304;24.344;2023-10-09T03:36:28;3.05;;;1.73;;
12780;SDS011;6454;43.304;24.344;2023-10-09T03:38:56;4.10;;;2.30;;
12780;SDS011;6454;43.304;24.344;2023-10-09T03:41:25;3.08;;;2.40;;
12780;SDS011;6454;43.304;24.344;2023-10-09T03:43:54;3.30;;;2.28;;
12780;SDS011;6454;43.304;24.344;2023-10-09T03:46:23;2.88;;;2.00;;
12780;SDS011;6454;43.304;24.344;2023-10-09T03:48:57;3.17;;;2.17;;
12780;SDS011;6454;43.304;24.344;2023-10-09T03:51:27;4.88;;;2.20;;
12780;SDS011;6454;43.304;24.344;2023-10-09T03:53:57;3.95;;;2.05;;
12780;SDS011;6454;43.304;24.344;2023-10-09T03:56:28;4.47;;;2.00;;
12780;SDS011;6454;43.304;24.344;2023-10-09T03:58:57;3.30;;;1.80;;
12780;SDS011;6454;43.304;24.344;2023-10-09T04:01:27;2.97;;;2.03;;
12780;SDS011;6454;43.304;24.344;2023-10-09T04:03:55;2.67;;;2.13;;
12780;SDS011;6454;43.304;24.344;2023-10-09T04:06:25;4.45;;;2.30;;
12780;SDS011;6454;43.304;24.344;2023-10-09T04:08:56;3.28;;;1.88;;
12780;SDS011;6454;43.304;24.344;2023-10-09T04:11:24;4.25;;;2.10;;
12780;SDS011;6454;43.304;24.344;2023-10-09T04:13:51;2.47;;;1.83;;
12780;SDS011;6454;43.304;24.344;2023-10-09T04:16:18;2.80;;;1.85;;
12780;SDS011;6454;43.304;24.344;2023-10-09T04:19:01;5.60;;;1.92;;
12780;SDS011;6454;43.304;24.344;2023-10-09T04:21:36;4.28;;;2.05;;
12780;SDS011;6454;43.304;24.344;2023-10-09T04:24:02;5.50;;;1.92;;
12780;SDS011;6454;43.304;24.344;2023-10-09T04:26:48;4.57;;;1.70;;
12780;SDS011;6454;43.304;24.344;2023-10-09T04:29:21;1.90;;;1.50;;
12780;SDS011;6454;43.304;24.344;2023-10-09T04:31:53;4.07;;;1.70;;
12780;SDS011;6454;43.304;24.344;2023-10-09T04:34:27;2.53;;;1.70;;
12780;SDS011;6454;43.304;24.344;2023-10-09T04:37:01;4.75;;;2.17;;
12780;SDS011;6454;43.304;24.344;2023-10-09T04:40:02;2.15;;;1.65;;
12780;SDS011;6454;43.304;24.344;2023-10-09T04:42:37;5.55;;;2.35;;
12780;SDS011;6454;43.304;24.344;2023-10-09T04:45:04;3.65;;;2.15;;
12780;SDS011;6454;43.304;24.344;2023-10-09T04:47:50;8.73;;;2.03;;
12780;SDS011;6454;43.304;24.344;2023-10-09T04:50:33;3.95;;;2.20;;
12780;SDS011;6454;43.304;24.344;2023-10-09T04:53:10;3.17;;;2.53;;
12780;SDS011;6454;43.304;24.344;2023-10-09T04:55:54;5.13;;;2.35;;
12780;SDS011;6454;43.304;24.344;2023-10-09T04:58:30;2.72;;;1.77;;
12780;SDS011;6454;43.304;24.344;2023-10-09T05:01:04;5.22;;;1.90;;
12780;SDS011;6454;43.304;24.344;2023-10-09T05:03:38;3.95;;;2.42;;
12780;SDS011;6454;43.304;24.344;2023-10-09T05:06:23;7.90;;;2.53;;
12780;SDS011;6454;43.304;24.344;2023-10-09T05:09:14;6.55;;;2.13;;
12780;SDS011;6454;43.304;24.344;2023-10-09T05:11:45;3.45;;;2.00;;
12780;SDS011;6454;43.304;24.344;2023-10-09T05:14:18;6.18;;;2.13;;
12780;SDS011;6454;43.304;24.344;2023-10-09T05:16:52;3.90;;;2.30;;
12780;SDS011;6454;43.304;24.344;2023-10-09T05:19:26;4.88;;;2.38;;
12780;SDS011;6454;43.304;24.344;2023-10-09T05:22:11;5.60;;;2.80;;
12780;SDS011;6454;43.304;24.344;2023-10-09T05:24:53;3.70;;;2.33;;
12780;SDS011;6454;43.304;24.344;2023-10-09T05:27:21;4.05;;;2.63;;
12780;SDS011;6454;43.304;24.344;2023-10-09T05:30:09;4.60;;;2.47;;
12780;SDS011;6454;43.304;24.344;2023-10-09T05:32:51;4.50;;;2.42;;
12780;SDS011;6454;43.304;24.344;2023-10-09T05:35:23;5.65;;;2.50;;
12780;SDS011;6454;43.304;24.344;2023-10-09T05:38:09;7.78;;;2.97;;
12780;SDS011;6454;43.304;24.344;2023-10-09T05:40:49;8.50;;;3.95;;
12780;SDS011;6454;43.304;24.344;2023-10-09T05:43:19;13.93;;;3.47;;
12780;SDS011;6454;43.304;24.344;2023-10-09T05:46:04;6.10;;;2.90;;
12780;SDS011;6454;43.304;24.344;2023-10-09T05:48:35;8.82;;;3.33;;
12780;SDS011;6454;43.304;24.344;2023-10-09T05:51:19;5.28;;;3.55;;
12780;SDS011;6454;43.304;24.344;2023-10-09T05:54:02;5.70;;;3.00;;
12780;SDS011;6454;43.304;24.344;2023-10-09T05:56:51;12.30;;;3.42;;
12780;SDS011;6454;43.304;24.344;2023-10-09T05:59:45;6.45;;;3.08;;
12780;SDS011;6454;43.304;24.344;2023-10-09T06:02:30;9.25;;;3.47;;
12780;SDS011;6454;43.304;24.344;2023-10-09T06:05:15;7.65;;;3.50;;
12780;SDS011;6454;43.304;24.344;2023-10-09T06:08:00;15.23;;;3.47;;
12780;SDS011;6454;43.304;24.344;2023-10-09T06:10:34;12.73;;;3.90;;
12780;SDS011;6454;43.304;24.344;2023-10-09T06:13:06;18.92;;;3.78;;
12780;SDS011;6454;43.304;24.344;2023-10-09T06:15:55;7.45;;;3.35;;
12780;SDS011;6454;43.304;24.344;2023-10-09T06:18:47;15.45;;;6.13;;
12780;SDS011;6454;43.304;24.344;2023-10-09T06:21:33;17.15;;;8.52;;
12780;SDS011;6454;43.304;24.344;2023-10-09T06:24:25;11.70;;;6.35;;
12780;SDS011;6454;43.304;24.344;2023-10-09T06:27:00;18.70;;;8.20;;
12780;SDS011;6454;43.304;24.344;2023-10-09T06:29:49;20.10;;;9.82;;
12780;SDS011;6454;43.304;24.344;2023-10-09T06:32:39;19.70;;;8.32;;
12780;SDS011;6454;43.304;24.344;2023-10-09T06:35:15;12.32;;;6.95;;
12780;SDS011;6454;43.304;24.344;2023-10-09T06:37:43;14.25;;;6.93;;
12780;SDS011;6454;43.304;24.344;2023-10-09T06:40:29;16.27;;;7.03;;
12780;SDS011;6454;43.304;24.344;2023-10-09T06:43:15;7.45;;;4.40;;
12780;SDS011;6454;43.304;24.344;2023-10-09T06:45:52;6.13;;;3.47;;
12780;SDS011;6454;43.304;24.344;2023-10-09T06:48:23;8.07;;;3.53;;
12780;SDS011;6454;43.304;24.344;2023-10-09T06:51:10;4.95;;;3.15;;
12780;SDS011;6454;43.304;24.344;2023-10-09T06:53:40;7.40;;;3.78;;
12780;SDS011;6454;43.304;24.344;2023-10-09T06:56:29;8.48;;;3.55;;
12780;SDS011;6454;43.304;24.344;2023-10-09T06:59:27;4.72;;;3.10;;
12780;SDS011;6454;43.304;24.344;2023-10-09T07:02:06;3.78;;;2.55;;
12780;SDS011;6454;43.304;24.344;2023-10-09T07:04:51;6.18;;;2.90;;
12780;SDS011;6454;43.304;24.344;2023-10-09T07:07:21;7.30;;;3.25;;
12780;SDS011;6454;43.304;24.344;2023-10-09T07:09:50;4.85;;;2.67;;
12780;SDS011;6454;43.304;24.344;2023-10-09T07:12:35;4.57;;;2.40;;
12780;SDS011;6454;43.304;24.344;2023-10-09T07:15:10;5.78;;;2.40;;
12780;SDS011;6454;43.304;24.344;2023-10-09T07:17:55;4.93;;;2.30;;
12780;SDS011;6454;43.304;24.344;2023-10-09T07:20:45;4.18;;;2.05;;
12780;SDS011;6454;43.304;24.344;2023-10-09T07:23:26;6.00;;;2.40;;
12780;SDS011;6454;43.304;24.344;2023-10-09T07:26:03;3.83;;;2.10;;
12780;SDS011;6454;43.304;24.344;2023-10-09T07:28:45;2.53;;;1.90;;
12780;SDS011;6454;43.304;24.344;2023-10-09T07:31:19;4.10;;;1.90;;
12780;SDS011;6454;43.304;24.344;2023-10-09T07:33:52;5.35;;;1.90;;
12780;SDS011;6454;43.304;24.344;2023-10-09T07:36:32;4.25;;;1.80;;
12780;SDS011;6454;43.304;24.344;2023-10-09T07:39:04;2.97;;;2.00;;
12780;SDS011;6454;43.304;24.344;2023-10-09T07:41:42;3.53;;;1.95;;
12780;SDS011;6454;43.304;24.344;2023-10-09T07:44:22;3.45;;;1.85;;
12780;SDS011;6454;43.304;24.344;2023-10-09T07:47:09;3.42;;;1.88;;
12780;SDS011;6454;43.304;24.344;2023-10-09T07:49:43;3.08;;;2.15;;
12780;SDS011;6454;43.304;24.344;2023-10-09T07:52:17;5.00;;;2.05;;
12780;SDS011;6454;43.304;24.344;2023-10-09T07:54:47;3.53;;;1.85;;
12780;SDS011;6454;43.304;24.344;2023-10-09T07:57:27;3.30;;;2.03;;
12780;SDS011;6454;43.304;24.344;2023-10-09T08:00:05;7.13;;;1.58;;
12780;SDS011;6454;43.304;24.344;2023-10-09T08:02:54;5.40;;;1.50;;
12780;SDS011;6454;43.304;24.344;2023-10-09T08:05:26;3.65;;;1.65;;
12780;SDS011;6454;43.304;24.344;2023-10-09T08:07:59;8.90;;;2.08;;
12780;SDS011;6454;43.304;24.344;2023-10-09T08:10:44;7.43;;;2.10;;
12780;SDS011;6454;43.304;24.344;2023-10-09T08:13:29;2.58;;;1.90;;
12780;SDS011;6454;43.304;24.344;2023-10-09T08:16:14;3.10;;;1.70;;
12780;SDS011;6454;43.304;24.344;2023-10-09T08:18:48;2.83;;;1.70;;
12780;SDS011;6454;43.304;24.344;2023-10-09T08:21:16;9.18;;;1.95;;
12780;SDS011;6454;43.304;24.344;2023-10-09T08:24:06;7.30;;;1.73;;
12780;SDS011;6454;43.304;24.344;2023-10-09T08:26:52;5.10;;;1.55;;
12780;SDS011;6454;43.304;24.344;2023-10-09T08:29:39;4.63;;;1.70;;
12780;SDS011;6454;43.304;24.344;2023-10-09T08:32:13;2.90;;;2.08;;
12780;SDS011;6454;43.304;24.344;2023-10-09T08:35:06;4.53;;;1.67;;
12780;SDS011;6454;43.304;24.344;2023-10-09T08:37:46;5.70;;;1.90;;
12780;SDS011;6454;43.304;24.344;2023-10-09T08:40:13;2.83;;;1.70;;
12780;SDS011;6454;43.304;24.344;2023-10-09T08:42:46;6.13;;;1.83;;
12780;SDS011;6454;43.304;24.344;2023-10-09T08:45:20;4.07;;;1.77;;
12780;SDS011;6454;43.304;24.344;2023-10-09T08:47:51;2.97;;;1.90;;
12780;SDS011;6454;43.304;24.344;2023-10-09T08:50:21;4.43;;;2.00;;
12780;SDS011;6454;43.304;24.344;2023-10-09T08:52:53;3.28;;;1.80;;
12780;SDS011;6454;43.304;24.344;2023-10-09T08:55:22;4.93;;;1.90;;
12780;SDS011;6454;43.304;24.344;2023-10-09T08:57:49;4.00;;;1.85;;
12780;SDS011;6454;43.304;24.344;2023-10-09T09:00:17;4.03;;;1.88;;
12780;SDS011;6454;43.304;24.344;2023-10-09T09:02:49;2.35;;;1.60;;
12780;SDS011;6454;43.304;24.344;2023-10-09T09:05:18;2.15;;;1.70;;
12780;SDS011;6454;43.304;24.344;2023-10-09T09:07:47;5.57;;;1.80;;
12780;SDS011;6454;43.304;24.344;2023-10-09T09:10:14;7.75;;;1.98;;
12780;SDS011;6454;43.304;24.344;2023-10-09T09:12:46;3.45;;;1.83;;
12780;SDS011;6454;43.304;24.344;2023-10-09T09:15:18;3.60;;;1.80;;
12780;SDS011;6454;43.304;24.344;2023-10-09T09:17:46;3.03;;;1.77;;
12780;SDS011;6454;43.304;24.344;2023-10-09T09:20:21;2.38;;;1.48;;
12780;SDS011;6454;43.304;24.344;2023-10-09T09:22:55;3.10;;;1.48;;
12780;SDS011;6454;43.304;24.344;2023-10-09T09:25:22;3.72;;;1.50;;
12780;SDS011;6454;43.304;24.344;2023-10-09T09:27:56;3.42;;;1.50;;
12780;SDS011;6454;43.304;24.344;2023-10-09T09:30:35;4.30;;;1.60;;
12780;SDS011;6454;43.304;24.344;2023-10-09T09:33:16;5.07;;;1.38;;
12780;SDS011;6454;43.304;24.344;2023-10-09T09:38:32;3.03;;;1.60;;
12780;SDS011;6454;43.304;24.344;2023-10-09T09:41:08;5.45;;;1.73;;
12780;SDS011;6454;43.304;24.344;2023-10-09T09:43:38;3.45;;;1.55;;
12780;SDS011;6454;43.304;24.344;2023-10-09T09:46:07;2.70;;;1.60;;
12780;SDS011;6454;43.304;24.344;2023-10-09T09:48:38;3.13;;;1.73;;
12780;SDS011;6454;43.304;24.344;2023-10-09T09:51:10;4.15;;;1.50;;
12780;SDS011;6454;43.304;24.344;2023-10-09T09:53:41;5.40;;;1.52;;
12780;SDS011;6454;43.304;24.344;2023-10-09T09:56:13;7.20;;;1.60;;
12780;SDS011;6454;43.304;24.344;2023-10-09T09:58:46;3.00;;;1.50;;
12780;SDS011;6454;43.304;24.344;2023-10-09T10:01:18;2.63;;;1.55;;
12780;SDS011;6454;43.304;24.344;2023-10-09T10:03:51;5.65;;;1.40;;
12780;SDS011;6454;43.304;24.344;2023-10-09T10:06:22;1.70;;;1.33;;
12780;SDS011;6454;43.304;24.344;2023-10-09T10:08:53;1.40;;;1.30;;
12780;SDS011;6454;43.304;24.344;2023-10-09T10:14:11;5.97;;;1.70;;
12780;SDS011;6454;43.304;24.344;2023-10-09T10:17:00;9.35;;;1.60;;
12780;SDS011;6454;43.304;24.344;2023-10-09T10:22:48;3.35;;;1.35;;
12780;SDS011;6454;43.304;24.344;2023-10-09T10:25:33;3.33;;;1.40;;
12780;SDS011;6454;43.304;24.344;2023-10-09T10:28:17;6.95;;;1.55;;
12780;SDS011;6454;43.304;24.344;2023-10-09T10:31:01;2.65;;;1.48;;
12780;SDS011;6454;43.304;24.344;2023-10-09T10:36:36;3.63;;;1.48;;
12780;SDS011;6454;43.304;24.344;2023-10-09T10:39:09;4.65;;;1.30;;
12780;SDS011;6454;43.304;24.344;2023-10-09T10:41:38;4.10;;;1.67;;
12780;SDS011;6454;43.304;24.344;2023-10-09T10:44:16;6.47;;;1.77;;
12780;SDS011;6454;43.304;24.344;2023-10-09T10:47:02;3.45;;;1.60;;
12780;SDS011;6454;43.304;24.344;2023-10-09T10:49:30;7.45;;;1.63;;
12780;SDS011;6454;43.304;24.344;2023-10-09T10:52:03;3.25;;;1.33;;
12780;SDS011;6454;43.304;24.344;2023-10-09T10:54:43;2.72;;;1.60;;
12780;SDS011;6454;43.304;24.344;2023-10-09T10:57:35;2.33;;;1.80;;
12780;SDS011;6454;43.304;24.344;2023-10-09T11:00:21;4.15;;;1.67;;
12780;SDS011;6454;43.304;24.344;2023-10-09T11:03:01;2.40;;;1.30;;
12780;SDS011;6454;43.304;24.344;2023-10-09T11:05:42;2.80;;;1.60;;
12780;SDS011;6454;43.304;24.344;2023-10-09T11:08:15;5.10;;;1.48;;
12780;SDS011;6454;43.304;24.344;2023-10-09T11:10:48;4.43;;;1.42;;
12780;SDS011;6454;43.304;24.344;2023-10-09T11:13:24;2.75;;;1.45;;
12780;SDS011;6454;43.304;24.344;2023-10-09T11:15:59;2.10;;;1.48;;
12780;SDS011;6454;43.304;24.344;2023-10-09T11:18:49;1.80;;;1.60;;
12780;SDS011;6454;43.304;24.344;2023-10-09T11:21:16;2.63;;;1.58;;
12780;SDS011;6454;43.304;24.344;2023-10-09T11:23:56;1.42;;;1.30;;
12780;SDS011;6454;43.304;24.344;2023-10-09T11:26:24;1.63;;;1.30;;
12780;SDS011;6454;43.304;24.344;2023-10-09T11:29:07;2.25;;;1.40;;
12780;SDS011;6454;43.304;24.344;2023-10-09T11:31:42;3.92;;;1.65;;
12780;SDS011;6454;43.304;24.344;2023-10-09T11:34:22;4.05;;;1.45;;
12780;SDS011;6454;43.304;24.344;2023-10-09T11:36:57;2.53;;;1.80;;
12780;SDS011;6454;43.304;24.344;2023-10-09T11:39:28;1.75;;;1.55;;
12780;SDS011;6454;43.304;24.344;2023-10-09T11:42:16;1.70;;;1.27;;
12780;SDS011;6454;43.304;24.344;2023-10-09T11:45:02;3.45;;;1.70;;
12780;SDS011;6454;43.304;24.344;2023-10-09T11:47:44;2.42;;;1.75;;
12780;SDS011;6454;43.304;24.344;2023-10-09T11:53:14;3.17;;;1.73;;
12780;SDS011;6454;43.304;24.344;2023-10-09T11:55:58;4.00;;;1.67;;
12780;SDS011;6454;43.304;24.344;2023-10-09T11:58:25;4.70;;;2.03;;
12780;SDS011;6454;43.304;24.344;2023-10-09T12:00:54;3.85;;;1.80;;
12780;SDS011;6454;43.304;24.344;2023-10-09T12:03:24;4.88;;;1.80;;
12780;SDS011;6454;43.304;24.344;2023-10-09T12:05:56;3.35;;;1.60;;
12780;SDS011;6454;43.304;24.344;2023-10-09T12:08:29;5.45;;;1.50;;
12780;SDS011;6454;43.304;24.344;2023-10-09T12:10:57;2.72;;;1.30;;
12780;SDS011;6454;43.304;24.344;2023-10-09T12:13:28;2.72;;;1.33;;
12780;SDS011;6454;43.304;24.344;2023-10-09T12:15:57;1.88;;;1.48;;
12780;SDS011;6454;43.304;24.344;2023-10-09T12:18:26;2.83;;;1.50;;
12780;SDS011;6454;43.304;24.344;2023-10-09T12:20:53;3.20;;;1.38;;
12780;SDS011;6454;43.304;24.344;2023-10-09T12:23:27;2.60;;;2.03;;
12780;SDS011;6454;43.304;24.344;2023-10-09T12:26:00;2.05;;;1.20;;
12780;SDS011;6454;43.304;24.344;2023-10-09T12:28:28;4.90;;;1.52;;
12780;SDS011;6454;43.304;24.344;2023-10-09T12:30:59;3.58;;;1.58;;
12780;SDS011;6454;43.304;24.344;2023-10-09T12:33:27;6.10;;;1.40;;
12780;SDS011;6454;43.304;24.344;2023-10-09T12:35:56;2.63;;;1.30;;
12780;SDS011;6454;43.304;24.344;2023-10-09T12:38:26;1.38;;;1.27;;
12780;SDS011;6454;43.304;24.344;2023-10-09T12:41:00;1.23;;;1.13;;
12780;SDS011;6454;43.304;24.344;2023-10-09T12:43:33;1.60;;;1.30;;
12780;SDS011;6454;43.304;24.344;2023-10-09T12:46:05;2.30;;;1.10;;
12780;SDS011;6454;43.304;24.344;2023-10-09T12:48:34;1.95;;;1.40;;
12780;SDS011;6454;43.304;24.344;2023-10-09T12:51:02;2.17;;;1.48;;
12780;SDS011;6454;43.304;24.344;2023-10-09T12:53:32;1.77;;;1.40;;
12780;SDS011;6454;43.304;24.344;2023-10-09T12:56:06;5.97;;;1.20;;
12780;SDS011;6454;43.304;24.344;2023-10-09T12:58:34;3.28;;;1.42;;
12780;SDS011;6454;43.304;24.344;2023-10-09T13:01:03;4.25;;;1.50;;
12780;SDS011;6454;43.304;24.344;2023-10-09T13:03:36;3.92;;;1.50;;
12780;SDS011;6454;43.304;24.344;2023-10-09T13:06:04;2.60;;;1.40;;
12780;SDS011;6454;43.304;24.344;2023-10-09T13:08:35;2.00;;;1.30;;
12780;SDS011;6454;43.304;24.344;2023-10-09T13:11:06;2.58;;;1.60;;
12780;SDS011;6454;43.304;24.344;2023-10-09T13:13:35;2.50;;;1.45;;
12780;SDS011;6454;43.304;24.344;2023-10-09T13:16:11;4.22;;;1.83;;
12780;SDS011;6454;43.304;24.344;2023-10-09T13:18:46;2.30;;;1.55;;
12780;SDS011;6454;43.304;24.344;2023-10-09T13:21:16;1.95;;;1.40;;
12780;SDS011;6454;43.304;24.344;2023-10-09T13:23:44;2.85;;;1.67;;
12780;SDS011;6454;43.304;24.344;2023-10-09T13:26:14;1.95;;;1.50;;
12780;SDS011;6454;43.304;24.344;2023-10-09T13:28:49;2.42;;;1.35;;
12780;SDS011;6454;43.304;24.344;2023-10-09T13:31:20;1.42;;;1.23;;
12780;SDS011;6454;43.304;24.344;2023-10-09T13:33:50;3.10;;;1.30;;
12780;SDS011;6454;43.304;24.344;2023-10-09T13:36:19;3.50;;;1.33;;
12780;SDS011;6454;43.304;24.344;2023-10-09T13:38:54;1.65;;;1.48;;
12780;SDS011;6454;43.304;24.344;2023-10-09T13:41:22;5.45;;;1.45;;
12780;SDS011;6454;43.304;24.344;2023-10-09T13:43:53;2.58;;;1.50;;
12780;SDS011;6454;43.304;24.344;2023-10-09T13:46:23;2.85;;;1.33;;
12780;SDS011;6454;43.304;24.344;2023-10-09T13:48:50;1.58;;;1.40;;
12780;SDS011;6454;43.304;24.344;2023-10-09T13:51:18;1.83;;;1.50;;
12780;SDS011;6454;43.304;24.344;2023-10-09T13:53:48;2.47;;;1.63;;
12780;SDS011;6454;43.304;24.344;2023-10-09T13:56:16;1.85;;;1.30;;
12780;SDS011;6454;43.304;24.344;2023-10-09T13:58:47;3.65;;;1.58;;
12780;SDS011;6454;43.304;24.344;2023-10-09T14:01:16;1.63;;;1.52;;
12780;SDS011;6454;43.304;24.344;2023-10-09T14:03:53;2.75;;;1.60;;
12780;SDS011;6454;43.304;24.344;2023-10-09T14:06:21;3.35;;;1.70;;
12780;SDS011;6454;43.304;24.344;2023-10-09T14:08:56;1.90;;;1.50;;
12780;SDS011;6454;43.304;24.344;2023-10-09T14:11:23;1.60;;;1.30;;
12780;SDS011;6454;43.304;24.344;2023-10-09T14:13:51;1.88;;;1.50;;
12780;SDS011;6454;43.304;24.344;2023-10-09T14:16:18;2.42;;;1.52;;
12780;SDS011;6454;43.304;24.344;2023-10-09T14:18:58;2.47;;;1.70;;
12780;SDS011;6454;43.304;24.344;2023-10-09T14:21:28;2.10;;;1.40;;
12780;SDS011;6454;43.304;24.344;2023-10-09T14:23:58;2.60;;;1.60;;
12780;SDS011;6454;43.304;24.344;2023-10-09T14:26:25;2.33;;;1.50;;
12780;SDS011;6454;43.304;24.344;2023-10-09T14:28:53;5.70;;;1.45;;
12780;SDS011;6454;43.304;24.344;2023-10-09T14:31:22;2.75;;;1.67;;
12780;SDS011;6454;43.304;24.344;2023-10-09T14:33:53;1.88;;;1.52;;
12780;SDS011;6454;43.304;24.344;2023-10-09T14:36:23;6.45;;;1.80;;
12780;SDS011;6454;43.304;24.344;2023-10-09T14:39:03;2.70;;;1.58;;
12780;SDS011;6454;43.304;24.344;2023-10-09T14:41:31;3.72;;;1.25;;
12780;SDS011;6454;43.304;24.344;2023-10-09T14:43:59;3.67;;;1.55;;
12780;SDS011;6454;43.304;24.344;2023-10-09T14:46:26;6.15;;;1.60;;
12780;SDS011;6454;43.304;24.344;2023-10-09T14:48:54;3.80;;;1.55;;
12780;SDS011;6454;43.304;24.344;2023-10-09T14:51:23;3.20;;;1.60;;
12780;SDS011;6454;43.304;24.344;2023-10-09T14:53:55;2.08;;;1.58;;
12780;SDS011;6454;43.304;24.344;2023-10-09T14:56:28;3.28;;;1.65;;
12780;SDS011;6454;43.304;24.344;2023-10-09T14:58:56;2.13;;;1.40;;
12780;SDS011;6454;43.304;24.344;2023-10-09T15:01:24;3.25;;;1.90;;
12780;SDS011;6454;43.304;24.344;2023-10-09T15:03:54;3.58;;;1.45;;
12780;SDS011;6454;43.304;24.344;2023-10-09T15:06:24;2.70;;;1.50;;
12780;SDS011;6454;43.304;24.344;2023-10-09T15:08:53;2.47;;;1.73;;
12780;SDS011;6454;43.304;24.344;2023-10-09T15:11:23;3.13;;;1.60;;
12780;SDS011;6454;43.304;24.344;2023-10-09T15:13:53;5.43;;;1.75;;
12780;SDS011;6454;43.304;24.344;2023-10-09T15:16:21;3.63;;;1.65;;
12780;SDS011;6454;43.304;24.344;2023-10-09T15:18:51;4.45;;;1.63;;
12780;SDS011;6454;43.304;24.344;2023-10-09T15:21:23;8.93;;;2.05;;
12780;SDS011;6454;43.304;24.344;2023-10-09T15:23:53;10.70;;;1.90;;
12780;SDS011;6454;43.304;24.344;2023-10-09T15:26:20;3.60;;;1.60;;
12780;SDS011;6454;43.304;24.344;2023-10-09T15:28:51;16.42;;;1.88;;
12780;SDS011;6454;43.304;24.344;2023-10-09T15:31:18;6.03;;;1.73;;
12780;SDS011;6454;43.304;24.344;2023-10-09T15:33:47;7.22;;;1.90;;
12780;SDS011;6454;43.304;24.344;2023-10-09T15:36:17;4.85;;;1.42;;
12780;SDS011;6454;43.304;24.344;2023-10-09T15:38:48;5.28;;;1.60;;
12780;SDS011;6454;43.304;24.344;2023-10-09T15:41:15;5.70;;;2.00;;
12780;SDS011;6454;43.304;24.344;2023-10-09T15:43:46;10.13;;;1.83;;
12780;SDS011;6454;43.304;24.344;2023-10-09T15:46:15;5.45;;;1.52;;